createdAt,value
2018-05-03T00:00:28.946Z,98953.02
2018-05-03T00:02:56.522Z,98950.19
2018-05-03T00:05:24.077Z,98947.02
2018-05-03T00:07:51.602Z,98951.82
2018-05-03T00:10:19.135Z,98955.31
2018-05-03T00:12:46.750Z,98949.36
2018-05-03T00:15:14.257Z,98944.64
2018-05-03T00:17:41.793Z,98949.91
2018-05-03T00:20:09.292Z,98945.30
2018-05-03T00:22:36.894Z,98955.91
2018-05-03T00:25:04.447Z,98952.97
2018-05-03T00:27:32.005Z,98954.25
2018-05-03T00:29:59.525Z,98954.59
2018-05-03T00:32:27.103Z,98956.89
2018-05-03T00:34:54.686Z,98956.77
2018-05-03T00:37:22.245Z,98953.73
2018-05-03T00:39:49.757Z,98948.41
2018-05-03T00:42:17.294Z,98956.00
2018-05-03T00:44:44.837Z,98960.05
2018-05-03T00:47:12.386Z,98960.08
2018-05-03T00:49:39.917Z,98957.55
2018-05-03T00:52:07.469Z,98959.50
2018-05-03T00:54:46.741Z,98963.29
2018-05-03T00:57:14.395Z,98958.59
2018-05-03T00:59:41.958Z,98968.42
2018-05-03T01:02:09.524Z,98968.98
2018-05-03T01:04:37.033Z,98981.64
2018-05-03T01:07:04.569Z,98986.30
2018-05-03T01:09:32.090Z,98990.16
2018-05-03T01:11:59.742Z,98997.16
2018-05-03T01:14:27.261Z,98991.11
2018-05-03T01:16:54.874Z,98996.55
2018-05-03T01:19:22.441Z,98994.53
2018-05-03T01:21:49.995Z,98990.61
2018-05-03T01:24:17.553Z,99002.59
2018-05-03T01:26:45.102Z,99004.49
2018-05-03T01:29:12.670Z,99008.66
2018-05-03T01:31:40.230Z,99001.48
2018-05-03T01:34:07.789Z,99011.06
2018-05-03T01:36:35.464Z,99008.00
2018-05-03T01:39:03.018Z,99005.20
2018-05-03T01:41:30.568Z,98997.22
2018-05-03T01:43:58.117Z,99004.67
2018-05-03T01:46:26.519Z,99006.62
2018-05-03T01:48:54.078Z,99006.23
2018-05-03T01:51:21.600Z,99017.20
2018-05-03T01:53:49.179Z,99021.91
2018-05-03T01:56:16.729Z,99022.00
2018-05-03T01:58:44.301Z,99033.06
2018-05-03T02:01:11.832Z,99034.91
2018-05-03T02:03:39.387Z,99035.48
2018-05-03T02:06:06.912Z,99028.69
2018-05-03T02:08:34.457Z,99032.94
2018-05-03T02:11:01.992Z,99032.30
2018-05-03T02:13:29.543Z,99024.86
2018-05-03T02:15:57.066Z,99027.15
2018-05-03T02:18:24.697Z,99030.51
2018-05-03T02:20:52.353Z,99027.23
2018-05-03T02:23:20.603Z,99028.08
2018-05-03T02:25:48.129Z,99038.68
2018-05-03T02:28:15.740Z,99034.45
2018-05-03T02:30:43.305Z,99034.15
2018-05-03T02:33:10.886Z,99036.64
2018-05-03T02:35:38.417Z,99036.38
2018-05-03T02:38:05.970Z,99038.66
2018-05-03T02:40:33.498Z,99034.59
2018-05-03T02:43:01.047Z,99036.77
2018-05-03T02:45:28.668Z,99036.23
2018-05-03T02:47:56.333Z,99032.95
2018-05-03T02:50:23.885Z,99037.93
2018-05-03T02:52:51.539Z,99041.05
2018-05-03T02:55:19.082Z,99030.06
2018-05-03T02:58:04.112Z,99032.92
2018-05-03T03:00:49.440Z,99042.48
2018-05-03T03:03:34.721Z,99039.30
2018-05-03T03:06:14.159Z,99040.97
2018-05-03T03:12:28.652Z,99042.16
2018-05-03T03:15:13.502Z,99040.56
2018-05-03T03:21:13.033Z,99034.60
2018-05-03T03:23:58.238Z,99040.08
2018-05-03T03:29:52.037Z,99040.73
2018-05-03T03:32:31.342Z,99040.90
2018-05-03T03:38:21.751Z,99048.84
2018-05-03T03:44:04.576Z,99070.75
2018-05-03T03:46:32.158Z,99076.60
2018-05-03T03:48:59.661Z,99073.98
2018-05-03T03:51:27.278Z,99083.03
2018-05-03T03:53:54.837Z,99079.60
2018-05-03T03:56:22.389Z,99080.83
2018-05-03T03:58:50.913Z,99080.92
2018-05-03T04:01:18.436Z,99081.26
2018-05-03T04:03:46.095Z,99075.98
2018-05-03T04:06:13.625Z,99074.39
2018-05-03T04:08:41.209Z,99069.87
2018-05-03T04:11:08.771Z,99067.00
2018-05-03T04:13:36.363Z,99063.50
2018-05-03T04:16:03.929Z,99062.88
2018-05-03T04:18:43.122Z,99054.97
2018-05-03T04:21:22.689Z,99052.69
2018-05-03T04:24:12.866Z,99049.63
2018-05-03T04:26:40.417Z,99056.25
2018-05-03T04:29:07.994Z,99055.50
2018-05-03T04:31:35.522Z,99060.59
2018-05-03T04:34:03.196Z,99055.52
2018-05-03T04:36:30.727Z,99058.91
2018-05-03T04:38:58.319Z,99058.19
2018-05-03T04:41:25.832Z,99064.77
2018-05-03T04:43:53.381Z,99073.67
2018-05-03T04:46:20.910Z,99082.92
2018-05-03T04:48:48.546Z,99080.79
2018-05-03T04:51:16.015Z,99087.16
2018-05-03T04:53:43.592Z,99092.98
2018-05-03T04:56:11.221Z,99102.13
2018-05-03T04:58:38.795Z,99109.94
2018-05-03T05:01:06.350Z,99111.19
2018-05-03T05:03:34.158Z,99121.54
2018-05-03T05:06:01.853Z,99127.33
2018-05-03T05:08:29.455Z,99128.62
2018-05-03T05:10:56.956Z,99132.77
2018-05-03T05:13:24.560Z,99135.44
2018-05-03T05:15:52.117Z,99139.87
2018-05-03T05:18:19.677Z,99146.27
2018-05-03T05:20:47.234Z,99147.80
2018-05-03T05:23:14.814Z,99144.81
2018-05-03T05:25:43.545Z,99147.80
2018-05-03T05:28:11.125Z,99150.09
2018-05-03T05:30:41.302Z,99147.66
2018-05-03T05:33:09.029Z,99155.86
2018-05-03T05:35:36.580Z,99157.20
2018-05-03T05:38:04.181Z,99153.44
2018-05-03T05:40:31.716Z,99149.13
2018-05-03T05:42:59.235Z,99147.99
2018-05-03T05:45:26.790Z,99157.93
2018-05-03T05:47:54.395Z,99151.00
2018-05-03T05:50:21.944Z,99141.62
2018-05-03T05:52:49.470Z,99152.51
2018-05-03T05:55:17.053Z,99153.09
2018-05-03T05:57:44.573Z,99160.77
2018-05-03T06:00:12.184Z,99157.53
2018-05-03T06:02:39.705Z,99170.69
2018-05-03T06:05:09.423Z,99179.59
2018-05-03T06:07:37.139Z,99186.58
2018-05-03T06:10:08.478Z,99188.08
2018-05-03T06:12:36.162Z,99196.95
2018-05-03T06:15:03.714Z,99197.61
2018-05-03T06:17:31.249Z,99187.52
2018-05-03T06:19:58.832Z,99197.83
2018-05-03T06:22:26.381Z,99198.08
2018-05-03T06:24:54.138Z,99187.92
2018-05-03T06:27:21.677Z,99201.54
2018-05-03T06:29:49.364Z,99211.19
2018-05-03T06:32:19.705Z,99216.67
2018-05-03T06:34:50.238Z,99212.33
2018-05-03T06:37:18.587Z,99212.96
2018-05-03T06:39:46.345Z,99207.45
2018-05-03T06:42:15.465Z,99213.38
2018-05-03T06:44:45.542Z,99209.70
2018-05-03T06:47:13.121Z,99212.77
2018-05-03T06:49:41.353Z,99220.64
2018-05-03T06:52:11.981Z,99223.34
2018-05-03T06:54:40.307Z,99225.77
2018-05-03T06:57:07.877Z,99230.94
2018-05-03T06:59:39.111Z,99236.48
2018-05-03T07:02:10.419Z,99239.09
2018-05-03T07:04:43.958Z,99236.75
2018-05-03T07:07:15.953Z,99246.19
2018-05-03T07:09:46.822Z,99239.89
2018-05-03T07:12:18.224Z,99245.08
2018-05-03T07:14:49.169Z,99246.39
2018-05-03T07:17:20.497Z,99246.50
2018-05-03T07:19:52.080Z,99245.16
2018-05-03T07:22:23.072Z,99241.06
2018-05-03T07:24:57.028Z,99250.68
2018-05-03T07:27:29.958Z,99248.33
2018-05-03T07:30:01.244Z,99254.77
2018-05-03T07:32:35.200Z,99255.06
2018-05-03T07:35:09.093Z,99253.20
2018-05-03T07:37:40.013Z,99254.31
2018-05-03T07:40:12.598Z,99256.75
2018-05-03T07:42:44.078Z,99257.83
2018-05-03T07:45:15.052Z,99258.18
2018-05-03T07:47:45.395Z,99257.06
2018-05-03T07:50:16.565Z,99261.67
2018-05-03T07:52:45.806Z,99243.75
2018-05-03T07:55:13.506Z,99252.19
2018-05-03T07:57:47.327Z,99247.09
2018-05-03T08:00:18.269Z,99254.97
2018-05-03T08:02:49.568Z,99257.59
2018-05-03T08:05:21.265Z,99254.55
2018-05-03T08:07:52.714Z,99258.78
2018-05-03T08:10:24.674Z,99256.69
2018-05-03T08:12:56.369Z,99262.16
2018-05-03T08:15:29.589Z,99242.22
2018-05-03T08:18:03.097Z,99267.20
2018-05-03T08:20:36.721Z,99261.70
2018-05-03T08:23:08.383Z,99259.10
2018-05-03T08:25:41.289Z,99262.88
2018-05-03T08:28:13.888Z,99272.18
2018-05-03T08:30:45.997Z,99279.25
2018-05-03T08:33:17.392Z,99274.69
2018-05-03T08:35:48.554Z,99277.32
2018-05-03T08:38:20.028Z,99281.36
2018-05-03T08:40:53.648Z,99274.39
2018-05-03T08:43:24.717Z,99262.88
2018-05-03T08:45:56.016Z,99275.86
2018-05-03T08:48:30.020Z,99272.38
2018-05-03T08:51:02.718Z,99278.17
2018-05-03T08:53:35.638Z,99278.63
2018-05-03T08:56:09.142Z,99278.71
2018-05-03T08:58:40.391Z,99272.30
2018-05-03T09:01:13.819Z,99273.59
2018-05-03T09:03:48.391Z,99277.63
2018-05-03T09:06:21.672Z,99281.34
2018-05-03T09:08:54.677Z,99277.89
2018-05-03T09:11:27.889Z,99278.98
2018-05-03T09:14:02.434Z,99278.72
2018-05-03T09:16:35.618Z,99282.09
2018-05-03T09:19:12.262Z,99288.02
2018-05-03T09:21:45.314Z,99288.59
2018-05-03T09:24:16.788Z,99283.86
2018-05-03T09:26:51.858Z,99282.28
2018-05-03T09:29:23.554Z,99287.34
2018-05-03T09:31:59.821Z,99296.94
2018-05-03T09:34:33.345Z,99294.19
2018-05-03T09:37:06.205Z,99294.42
2018-05-03T09:39:39.300Z,99296.34
2018-05-03T09:42:15.681Z,99296.66
2018-05-03T09:44:49.872Z,99298.22
2018-05-03T09:47:26.155Z,99310.19
2018-05-03T09:49:57.189Z,99303.72
2018-05-03T09:52:29.958Z,99302.35
2018-05-03T09:55:01.862Z,99301.73
2018-05-03T09:57:35.789Z,99304.52
2018-05-03T10:00:09.232Z,99295.34
2018-05-03T10:02:44.221Z,99297.76
2018-05-03T10:05:16.876Z,99297.39
2018-05-03T10:07:49.607Z,99298.58
2018-05-03T10:10:22.380Z,99296.26
2018-05-03T10:13:01.151Z,99310.40
2018-05-03T10:18:08.997Z,99308.05
2018-05-03T10:20:44.107Z,99306.78
2018-05-03T10:25:53.202Z,99300.84
2018-05-03T10:28:28.790Z,99293.95
2018-05-03T10:33:37.500Z,99296.70
2018-05-03T10:36:08.920Z,99296.44
2018-05-03T10:38:43.881Z,99295.09
2018-05-03T10:41:18.009Z,99300.50
2018-05-03T10:43:51.025Z,99302.34
2018-05-03T10:46:22.363Z,99304.05
2018-05-03T10:48:54.015Z,99298.42
2018-05-03T10:51:26.117Z,99303.09
2018-05-03T10:53:58.100Z,99302.19
2018-05-03T10:56:31.374Z,99295.83
2018-05-03T10:59:03.540Z,99295.05
2018-05-03T11:01:36.279Z,99292.48
2018-05-03T11:04:09.201Z,99290.56
2018-05-03T11:06:40.904Z,99288.21
2018-05-03T11:09:13.679Z,99296.22
2018-05-03T11:11:44.700Z,99290.09
2018-05-03T11:14:16.082Z,99286.40
2018-05-03T11:16:45.075Z,99290.42
2018-05-03T11:19:15.628Z,99292.98
2018-05-03T11:21:48.651Z,99295.23
2018-05-03T11:24:16.375Z,99300.77
2018-05-03T11:26:46.082Z,99296.78
2018-05-03T11:29:15.227Z,99300.52
2018-05-03T11:31:48.358Z,99300.12
2018-05-03T11:34:16.220Z,99305.73
2018-05-03T11:36:44.873Z,99293.73
2018-05-03T11:39:12.977Z,99281.80
2018-05-03T11:41:41.766Z,99294.59
2018-05-03T11:44:09.345Z,99282.03
2018-05-03T11:46:37.019Z,99283.80
2018-05-03T11:49:05.546Z,99285.48
2018-05-03T11:51:33.141Z,99288.45
2018-05-03T11:54:00.968Z,99282.11
2018-05-03T11:56:28.599Z,99283.69
2018-05-03T11:58:56.228Z,99276.05
2018-05-03T12:01:23.831Z,99279.27
2018-05-03T12:03:51.391Z,99275.58
2018-05-03T12:06:18.902Z,99275.34
2018-05-03T12:08:46.492Z,99275.94
2018-05-03T12:11:14.142Z,99277.55
2018-05-03T12:13:42.818Z,99271.63
2018-05-03T12:16:11.944Z,99270.61
2018-05-03T12:18:39.643Z,99277.42
2018-05-03T12:21:11.844Z,99274.64
2018-05-03T12:23:41.513Z,99273.09
2018-05-03T12:26:09.427Z,99277.77
2018-05-03T12:28:37.029Z,99270.14
2018-05-03T12:31:04.761Z,99267.20
2018-05-03T12:33:32.311Z,99265.45
2018-05-03T12:36:00.162Z,99265.94
2018-05-03T12:38:27.713Z,99270.26
2018-05-03T12:40:55.716Z,99262.50
2018-05-03T12:43:24.681Z,99259.19
2018-05-03T12:45:52.696Z,99256.63
2018-05-03T12:48:22.473Z,99268.67
2018-05-03T12:50:50.128Z,99264.41
2018-05-03T12:53:18.227Z,99262.33
2018-05-03T12:55:47.550Z,99255.60
2018-05-03T12:58:17.132Z,99255.13
2018-05-03T13:00:44.764Z,99253.53
2018-05-03T13:03:12.941Z,99259.80
2018-05-03T13:05:41.234Z,99258.78
2018-05-03T13:08:08.766Z,99254.26
2018-05-03T13:10:36.344Z,99260.51
2018-05-03T13:13:07.819Z,99260.28
2018-05-03T13:15:35.999Z,99265.38
2018-05-03T13:18:05.648Z,99267.17
2018-05-03T13:20:33.422Z,99266.59
2018-05-03T13:23:01.017Z,99274.24
2018-05-03T13:25:29.518Z,99260.42
2018-05-03T13:27:57.568Z,99261.01
2018-05-03T13:30:26.337Z,99260.86
2018-05-03T13:32:54.213Z,99263.45
2018-05-03T13:35:22.046Z,99258.09
2018-05-03T13:37:49.569Z,99260.84
2018-05-03T13:40:17.649Z,99269.96
2018-05-03T13:42:45.178Z,99264.28
2018-05-03T13:45:12.750Z,99258.66
2018-05-03T13:47:41.697Z,99258.91
2018-05-03T13:50:09.484Z,99254.42
2018-05-03T13:52:39.358Z,99253.61
2018-05-03T13:55:10.233Z,99257.26
2018-05-03T13:57:37.913Z,99256.31
2018-05-03T14:00:07.689Z,99257.97
2018-05-03T14:02:35.217Z,99256.60
2018-05-03T14:05:02.818Z,99256.97
2018-05-03T14:07:32.849Z,99252.73
2018-05-03T14:10:00.651Z,99253.47
2018-05-03T14:12:28.878Z,99259.03
2018-05-03T14:14:57.155Z,99254.05
2018-05-03T14:17:27.413Z,99255.13
2018-05-03T14:19:57.708Z,99253.66
2018-05-03T14:22:25.567Z,99254.49
2018-05-03T14:24:53.137Z,99258.48
2018-05-03T14:27:20.896Z,99254.53
2018-05-03T14:29:48.466Z,99256.09
2018-05-03T14:32:15.994Z,99250.20
2018-05-03T14:34:43.523Z,99252.45
2018-05-03T14:37:11.076Z,99245.02
2018-05-03T14:39:38.681Z,99250.29
2018-05-03T14:42:06.253Z,99242.13
2018-05-03T14:44:33.780Z,99249.81
2018-05-03T14:47:02.320Z,99248.10
2018-05-03T14:49:29.861Z,99258.69
2018-05-03T14:51:57.440Z,99251.86
2018-05-03T14:54:25.013Z,99264.13
2018-05-03T14:56:54.708Z,99265.54
2018-05-03T14:59:24.693Z,99274.03
2018-05-03T15:01:55.405Z,99267.52
2018-05-03T15:04:23.517Z,99258.59
2018-05-03T15:06:51.700Z,99265.05
2018-05-03T15:09:19.308Z,99266.09
2018-05-03T15:11:50.613Z,99265.27
2018-05-03T15:14:18.156Z,99264.33
2018-05-03T15:16:46.215Z,99265.42
2018-05-03T15:19:13.773Z,99260.06
2018-05-03T15:21:41.315Z,99266.77
2018-05-03T15:24:08.871Z,99261.98
2018-05-03T15:26:37.171Z,99271.45
2018-05-03T15:29:04.793Z,99264.27
2018-05-03T15:31:33.375Z,99269.35
2018-05-03T15:34:00.926Z,99260.98
2018-05-03T15:36:28.501Z,99265.70
2018-05-03T15:38:58.097Z,99267.27
2018-05-03T15:41:25.657Z,99273.57
2018-05-03T15:43:53.246Z,99277.57
2018-05-03T15:46:20.931Z,99278.06
2018-05-03T15:48:49.302Z,99280.50
2018-05-03T15:51:17.288Z,99284.98
2018-05-03T15:53:44.892Z,99280.45
2018-05-03T15:56:13.209Z,99283.80
2018-05-03T15:58:40.874Z,99287.41
2018-05-03T16:01:09.083Z,99284.02
2018-05-03T16:03:36.729Z,99291.13
2018-05-03T16:06:04.277Z,99282.68
2018-05-03T16:08:33.489Z,99289.42
2018-05-03T16:11:04.884Z,99296.45
2018-05-03T16:13:33.674Z,99289.04
2018-05-03T16:16:02.287Z,99296.00
2018-05-03T16:18:33.178Z,99297.52
2018-05-03T16:21:04.585Z,99293.05
2018-05-03T16:23:33.771Z,99303.29
2018-05-03T16:26:06.158Z,99297.05
2018-05-03T16:28:34.327Z,99298.20
2018-05-03T16:31:02.128Z,99299.05
2018-05-03T16:33:29.863Z,99301.41
2018-05-03T16:35:57.657Z,99305.13
2018-05-03T16:38:25.460Z,99306.22
2018-05-03T16:40:53.446Z,99298.00
2018-05-03T16:43:21.487Z,99301.36
2018-05-03T16:45:49.194Z,99298.56
2018-05-03T16:48:17.244Z,99303.11
2018-05-03T16:50:49.063Z,99305.34
2018-05-03T16:53:16.947Z,99306.47
2018-05-03T16:55:46.144Z,99300.15
2018-05-03T16:58:13.958Z,99303.11
2018-05-03T17:00:41.712Z,99304.97
2018-05-03T17:03:09.288Z,99303.52
2018-05-03T17:05:39.325Z,99310.39
2018-05-03T17:08:07.166Z,99313.91
2018-05-03T17:10:35.670Z,99320.56
2018-05-03T17:13:04.833Z,99314.11
2018-05-03T17:15:35.544Z,99318.27
2018-05-03T17:18:05.660Z,99311.91
2018-05-03T17:20:34.073Z,99308.13
2018-05-03T17:23:02.032Z,99307.05
2018-05-03T17:25:29.653Z,99309.45
2018-05-03T17:27:57.467Z,99310.30
2018-05-03T17:30:25.205Z,99307.77
2018-05-03T17:32:53.162Z,99321.50
2018-05-03T17:35:20.937Z,99315.52
2018-05-03T17:37:48.803Z,99325.86
2018-05-03T17:40:16.754Z,99325.56
2018-05-03T17:42:44.755Z,99325.55
2018-05-03T17:45:12.622Z,99320.13
2018-05-03T17:47:43.279Z,99327.77
2018-05-03T17:50:11.478Z,99325.62
2018-05-03T17:52:41.422Z,99330.81
2018-05-03T17:55:10.598Z,99336.84
2018-05-03T17:57:39.386Z,99346.73
2018-05-03T18:00:09.240Z,99344.24
2018-05-03T18:02:37.778Z,99345.02
2018-05-03T18:05:10.026Z,99348.02
2018-05-03T18:07:38.826Z,99346.31
2018-05-03T18:10:08.168Z,99351.13
2018-05-03T18:12:38.446Z,99363.90
2018-05-03T18:15:08.432Z,99360.83
2018-05-03T18:17:36.302Z,99371.61
2018-05-03T18:20:06.572Z,99375.06
2018-05-03T18:22:34.105Z,99374.22
2018-05-03T18:25:01.682Z,99371.53
2018-05-03T18:27:29.210Z,99381.56
2018-05-03T18:29:59.642Z,99379.16
2018-05-03T18:32:30.597Z,99378.42
2018-05-03T18:34:58.617Z,99393.33
2018-05-03T18:37:26.142Z,99390.91
2018-05-03T18:39:53.717Z,99398.14
2018-05-03T18:42:21.524Z,99401.83
2018-05-03T18:44:49.288Z,99405.22
2018-05-03T18:47:16.826Z,99400.80
2018-05-03T18:49:44.495Z,99413.02
2018-05-03T18:52:12.023Z,99416.29
2018-05-03T18:54:39.700Z,99411.14
2018-05-03T18:57:07.182Z,99416.26
2018-05-03T18:59:34.741Z,99419.84
2018-05-03T19:02:03.284Z,99429.98
2018-05-03T19:04:30.986Z,99434.98
2018-05-03T19:06:58.546Z,99432.76
2018-05-03T19:09:26.473Z,99441.20
2018-05-03T19:11:56.318Z,99433.59
2018-05-03T19:14:25.132Z,99433.27
2018-05-03T19:16:52.905Z,99445.13
2018-05-03T19:19:20.581Z,99449.48
2018-05-03T19:21:48.100Z,99443.56
2018-05-03T19:24:15.936Z,99449.98
2018-05-03T19:26:43.490Z,99446.29
2018-05-03T19:29:11.069Z,99449.95
2018-05-03T19:31:38.591Z,99454.78
2018-05-03T19:34:06.141Z,99459.31
2018-05-03T19:36:34.147Z,99461.11
2018-05-03T19:39:01.754Z,99463.70
2018-05-03T19:41:29.622Z,99466.65
2018-05-03T19:43:57.265Z,99477.30
2018-05-03T19:46:24.926Z,99478.02
2018-05-03T19:48:53.006Z,99483.55
2018-05-03T19:51:21.009Z,99487.41
2018-05-03T19:53:48.538Z,99480.17
2018-05-03T19:56:16.111Z,99487.83
2018-05-03T19:58:44.073Z,99490.48
2018-05-03T20:01:11.821Z,99492.89
2018-05-03T20:03:39.394Z,99500.41
2018-05-03T20:06:06.974Z,99501.44
2018-05-03T20:08:34.502Z,99498.20
2018-05-03T20:11:02.174Z,99502.25
2018-05-03T20:13:29.881Z,99508.84
2018-05-03T20:15:57.485Z,99505.75
2018-05-03T20:18:25.433Z,99500.74
2018-05-03T20:20:55.953Z,99511.32
2018-05-03T20:23:24.038Z,99511.38
2018-05-03T20:25:51.775Z,99514.48
2018-05-03T20:28:19.364Z,99508.65
2018-05-03T20:30:47.471Z,99520.97
2018-05-03T20:33:15.174Z,99527.09
2018-05-03T20:35:43.049Z,99533.85
2018-05-03T20:38:10.751Z,99534.88
2018-05-03T20:40:38.530Z,99538.59
2018-05-03T20:43:06.109Z,99540.23
2018-05-03T20:45:34.785Z,99537.69
2018-05-03T20:48:02.429Z,99542.73
2018-05-03T20:50:30.134Z,99546.41
2018-05-03T20:52:57.686Z,99551.20
2018-05-03T20:55:25.387Z,99552.37
2018-05-03T20:57:53.474Z,99553.63
2018-05-03T21:00:21.073Z,99547.14
2018-05-03T21:02:48.625Z,99549.25
2018-05-03T21:05:16.256Z,99554.53
2018-05-03T21:07:44.156Z,99553.56
2018-05-03T21:10:11.705Z,99546.25
2018-05-03T21:12:39.239Z,99552.81
2018-05-03T21:15:06.813Z,99555.70
2018-05-03T21:17:34.339Z,99562.29
2018-05-03T21:20:01.896Z,99563.58
2018-05-03T21:22:29.581Z,99565.08
2018-05-03T21:24:59.640Z,99566.16
2018-05-03T21:27:27.665Z,99573.04
2018-05-03T21:29:55.613Z,99574.03
2018-05-03T21:32:23.424Z,99564.72
2018-05-03T21:34:51.576Z,99565.37
2018-05-03T21:37:19.283Z,99566.45
2018-05-03T21:39:46.806Z,99560.30
2018-05-03T21:42:14.460Z,99557.73
2018-05-03T21:44:42.512Z,99555.34
2018-05-03T21:47:10.141Z,99554.06
2018-05-03T21:49:37.661Z,99548.98
2018-05-03T21:52:05.302Z,99556.63
2018-05-03T21:54:32.947Z,99563.12
2018-05-03T21:57:00.553Z,99564.50
2018-05-03T21:59:28.250Z,99555.51
2018-05-03T22:01:56.061Z,99555.45
2018-05-03T22:04:23.841Z,99554.00
2018-05-03T22:06:51.601Z,99561.73
2018-05-03T22:09:19.184Z,99556.44
2018-05-03T22:11:46.840Z,99552.58
2018-05-03T22:14:14.366Z,99553.92
2018-05-03T22:16:41.917Z,99552.22
2018-05-03T22:19:09.441Z,99549.63
2018-05-03T22:21:37.321Z,99552.67
2018-05-03T22:24:04.851Z,99552.28
2018-05-03T22:26:32.398Z,99556.94
2018-05-03T22:29:00.049Z,99555.39
2018-05-03T22:31:27.708Z,99556.86
2018-05-03T22:33:55.458Z,99549.91
2018-05-03T22:36:23.015Z,99558.09
2018-05-03T22:38:50.543Z,99561.76
2018-05-03T22:41:18.536Z,99558.41
2018-05-03T22:43:46.571Z,99567.02
2018-05-03T22:46:14.475Z,99566.05
2018-05-03T22:48:42.022Z,99564.75
2018-05-03T22:51:09.805Z,99561.25
2018-05-03T22:53:37.596Z,99567.02
2018-05-03T22:56:05.240Z,99567.02
2018-05-03T22:58:33.031Z,99565.64
2018-05-03T23:01:00.583Z,99563.16
2018-05-03T23:03:28.339Z,99570.17
2018-05-03T23:05:56.401Z,99567.36
2018-05-03T23:08:24.014Z,99570.98
2018-05-03T23:10:55.677Z,99562.47
2018-05-03T23:13:24.999Z,99563.87
2018-05-03T23:15:53.300Z,99559.22
2018-05-03T23:18:21.945Z,99557.09
2018-05-03T23:20:50.307Z,99554.65
2018-05-03T23:23:18.734Z,99556.20
2018-05-03T23:25:46.458Z,99551.28
2018-05-03T23:28:14.514Z,99554.00
2018-05-03T23:30:43.219Z,99557.63
2018-05-03T23:33:11.433Z,99549.75
2018-05-03T23:35:39.016Z,99551.64
2018-05-03T23:38:07.099Z,99540.98
2018-05-03T23:40:34.619Z,99550.89
2018-05-03T23:43:02.174Z,99554.36
2018-05-03T23:45:30.129Z,99561.43
2018-05-03T23:47:58.402Z,99559.04
2018-05-03T23:50:26.653Z,99558.89
2018-05-03T23:52:54.831Z,99561.84
2018-05-03T23:55:23.030Z,99561.95
2018-05-03T23:57:51.408Z,99557.94
